createdAt,value
2022-09-06T00:00:15.540Z,87.70
2022-09-06T00:00:47.049Z,87.70
2022-09-06T00:01:18.569Z,87.40
2022-09-06T00:01:50.091Z,87.30
2022-09-06T00:02:21.702Z,87.30
2022-09-06T00:02:53.297Z,87.50
2022-09-06T00:03:24.895Z,87.50
2022-09-06T00:03:56.488Z,87.80
2022-09-06T00:04:28.059Z,87.50
2022-09-06T00:04:59.622Z,87.40
2022-09-06T00:05:31.142Z,87.80
2022-09-06T00:06:02.663Z,87.90
2022-09-06T00:06:34.184Z,87.50
2022-09-06T00:07:05.702Z,87.80
2022-09-06T00:07:37.230Z,87.40
2022-09-06T00:08:08.742Z,87.50
2022-09-06T00:08:40.287Z,87.50
2022-09-06T00:09:11.786Z,87.50
2022-09-06T00:09:43.294Z,87.50
2022-09-06T00:10:14.815Z,87.50
2022-09-06T00:10:46.344Z,87.60
2022-09-06T00:11:17.854Z,87.60
2022-09-06T00:11:49.385Z,87.60
2022-09-06T00:12:20.960Z,87.60
2022-09-06T00:12:52.482Z,87.60
2022-09-06T00:13:24.009Z,87.70
2022-09-06T00:13:55.546Z,87.70
2022-09-06T00:14:27.126Z,87.70
2022-09-06T00:14:58.662Z,87.70
2022-09-06T00:15:30.250Z,87.70
2022-09-06T00:16:01.835Z,87.60
2022-09-06T00:16:33.391Z,87.70
2022-09-06T00:17:04.893Z,87.70
2022-09-06T00:17:36.404Z,87.70
2022-09-06T00:18:07.978Z,87.70
2022-09-06T00:18:39.505Z,87.70
2022-09-06T00:19:11.074Z,87.70
2022-09-06T00:19:42.583Z,87.70
2022-09-06T00:20:14.097Z,87.70
2022-09-06T00:20:45.676Z,87.70
2022-09-06T00:21:17.204Z,86.60
2022-09-06T00:21:48.712Z,86.70
2022-09-06T00:22:20.221Z,86.60
2022-09-06T00:22:51.733Z,86.70
2022-09-06T00:23:23.265Z,86.70
2022-09-06T00:23:54.784Z,86.60
2022-09-06T00:24:26.285Z,86.60
2022-09-06T00:24:57.792Z,86.70
2022-09-06T00:25:29.313Z,86.70
2022-09-06T00:26:00.845Z,86.70
2022-09-06T00:26:32.354Z,86.60
2022-09-06T00:27:03.892Z,86.60
2022-09-06T00:27:35.395Z,86.80
2022-09-06T00:28:06.993Z,86.60
2022-09-06T00:28:38.517Z,86.60
2022-09-06T00:29:10.046Z,86.70
2022-09-06T00:29:41.568Z,86.70
2022-09-06T00:30:13.076Z,86.70
2022-09-06T00:30:44.621Z,86.90
2022-09-06T00:31:16.305Z,86.90
2022-09-06T00:31:47.901Z,86.70
2022-09-06T00:32:19.410Z,86.70
2022-09-06T00:32:50.933Z,86.80
2022-09-06T00:33:22.482Z,86.70
2022-09-06T00:33:54.018Z,86.90
2022-09-06T00:34:25.526Z,86.90
2022-09-06T00:34:57.090Z,86.80
2022-09-06T00:35:28.647Z,86.90
2022-09-06T00:36:00.163Z,86.90
2022-09-06T00:36:31.672Z,86.90
2022-09-06T00:37:03.190Z,86.90
2022-09-06T00:37:34.697Z,86.90
2022-09-06T00:38:06.206Z,86.90
2022-09-06T00:38:37.745Z,86.90
2022-09-06T00:39:09.293Z,86.90
2022-09-06T00:39:41.034Z,87.00
2022-09-06T00:40:12.587Z,87.00
2022-09-06T00:40:44.101Z,86.90
2022-09-06T00:41:15.604Z,86.90
2022-09-06T00:41:47.134Z,87.10
2022-09-06T00:42:18.647Z,87.00
2022-09-06T00:42:50.152Z,87.00
2022-09-06T00:43:21.666Z,87.00
2022-09-06T00:43:53.210Z,86.90
2022-09-06T00:44:24.705Z,86.90
2022-09-06T00:44:56.224Z,86.90
2022-09-06T00:45:27.728Z,87.00
2022-09-06T00:46:00.437Z,87.00
2022-09-06T00:46:31.986Z,87.00
2022-09-06T00:47:03.582Z,87.00
2022-09-06T00:47:35.093Z,87.00
2022-09-06T00:48:06.597Z,87.10
2022-09-06T00:48:38.157Z,87.20
2022-09-06T00:49:09.668Z,87.20
2022-09-06T00:49:41.189Z,87.20
2022-09-06T00:50:12.859Z,87.10
2022-09-06T00:50:44.364Z,87.00
2022-09-06T00:51:15.870Z,87.80
2022-09-06T00:51:47.368Z,87.10
2022-09-06T00:52:18.868Z,87.00
2022-09-06T00:52:50.390Z,87.10
2022-09-06T00:53:21.887Z,87.20
2022-09-06T00:53:53.386Z,87.10
2022-09-06T00:54:24.889Z,87.20
2022-09-06T00:54:56.421Z,87.20
2022-09-06T00:55:27.929Z,87.20
2022-09-06T00:55:59.423Z,87.30
2022-09-06T00:56:31.047Z,87.40
2022-09-06T00:57:02.560Z,87.30
2022-09-06T00:57:34.068Z,87.30
2022-09-06T00:58:05.567Z,87.40
2022-09-06T00:58:37.070Z,87.30
2022-09-06T00:59:08.589Z,87.40
2022-09-06T00:59:40.119Z,87.50
2022-09-06T01:00:11.624Z,87.50
2022-09-06T01:00:43.130Z,87.60
2022-09-06T01:01:14.698Z,87.50
2022-09-06T01:01:46.347Z,87.50
2022-09-06T01:02:18.043Z,87.60
2022-09-06T01:02:49.801Z,87.50
2022-09-06T01:03:21.368Z,87.70
2022-09-06T01:03:52.869Z,87.70
2022-09-06T01:04:24.383Z,87.70
2022-09-06T01:04:55.892Z,87.70
2022-09-06T01:05:27.393Z,87.70
2022-09-06T01:05:58.958Z,87.70
2022-09-06T01:06:30.462Z,87.70
2022-09-06T01:07:02.065Z,87.80
2022-09-06T01:07:33.577Z,87.90
2022-09-06T01:08:05.109Z,87.90
2022-09-06T01:08:36.616Z,87.90
2022-09-06T01:09:08.158Z,88.00
2022-09-06T01:09:39.690Z,88.00
2022-09-06T01:10:11.209Z,88.00
2022-09-06T01:10:42.729Z,88.00
2022-09-06T01:11:14.292Z,88.00
2022-09-06T01:11:45.813Z,88.10
2022-09-06T01:12:17.316Z,88.20
2022-09-06T01:12:48.825Z,88.20
2022-09-06T01:13:20.325Z,88.30
2022-09-06T01:13:51.820Z,88.40
2022-09-06T01:14:23.402Z,88.40
2022-09-06T01:14:54.901Z,88.50
2022-09-06T01:15:26.448Z,88.60
2022-09-06T01:15:58.146Z,88.70
2022-09-06T01:16:29.712Z,88.70
2022-09-06T01:17:01.204Z,88.90
2022-09-06T01:17:32.734Z,89.00
2022-09-06T01:18:04.255Z,89.50
2022-09-06T01:18:35.747Z,89.50
2022-09-06T01:19:07.281Z,89.80
2022-09-06T01:19:38.791Z,90.00
2022-09-06T01:20:10.304Z,90.10
2022-09-06T01:20:41.813Z,90.40
2022-09-06T01:21:13.380Z,91.00
2022-09-06T01:21:44.889Z,92.40
2022-09-06T01:22:16.397Z,93.70
2022-09-06T01:22:48.088Z,94.00
2022-09-06T01:23:19.623Z,93.40
2022-09-06T01:23:51.123Z,95.60
2022-09-06T01:24:22.645Z,94.50
2022-09-06T01:24:54.164Z,96.50
2022-09-06T01:25:25.673Z,94.10
2022-09-06T01:25:57.185Z,94.40
2022-09-06T01:26:28.690Z,94.90
2022-09-06T01:27:00.208Z,95.00
2022-09-06T01:27:31.737Z,94.50
2022-09-06T01:28:03.263Z,94.80
2022-09-06T01:28:34.784Z,94.70
2022-09-06T01:29:06.288Z,92.20
2022-09-06T01:29:37.978Z,92.60
2022-09-06T01:30:09.481Z,92.70
2022-09-06T01:30:41.052Z,91.60
2022-09-06T01:31:12.630Z,92.20
2022-09-06T01:31:44.181Z,93.00
2022-09-06T01:32:15.685Z,93.20
2022-09-06T01:32:47.189Z,92.70
2022-09-06T01:33:18.698Z,92.30
2022-09-06T01:33:50.200Z,92.30
2022-09-06T01:34:21.761Z,92.80
2022-09-06T01:34:53.336Z,92.30
2022-09-06T01:35:24.831Z,92.00
2022-09-06T01:35:56.336Z,92.70
2022-09-06T01:36:27.878Z,92.40
2022-09-06T01:37:09.799Z,92.30
2022-09-06T01:37:42.057Z,91.80
2022-09-06T01:38:13.611Z,91.50
2022-09-06T01:38:45.138Z,91.70
2022-09-06T01:39:16.654Z,91.60
2022-09-06T01:39:48.218Z,91.40
2022-09-06T01:40:19.801Z,90.80
2022-09-06T01:40:51.305Z,91.20
2022-09-06T01:41:22.816Z,91.50
2022-09-06T01:41:54.324Z,92.70
2022-09-06T01:44:20.251Z,93.50
2022-09-06T01:44:51.748Z,95.30
2022-09-06T01:45:23.245Z,94.50
2022-09-06T01:45:54.795Z,93.60
2022-09-06T01:46:26.385Z,93.30
2022-09-06T01:46:57.916Z,94.10
2022-09-06T01:47:29.416Z,92.00
2022-09-06T01:48:00.970Z,91.60
2022-09-06T01:48:32.468Z,92.20
2022-09-06T01:49:04.059Z,92.20
2022-09-06T01:49:35.584Z,92.30
2022-09-06T01:50:07.084Z,92.10
2022-09-06T01:50:38.583Z,92.30
2022-09-06T01:51:10.103Z,92.40
2022-09-06T01:51:41.599Z,92.40
2022-09-06T01:52:13.103Z,92.00
2022-09-06T01:52:44.648Z,92.80
2022-09-06T01:53:16.167Z,92.10
2022-09-06T01:53:47.682Z,91.80
2022-09-06T01:54:19.196Z,91.70
2022-09-06T01:54:50.722Z,92.70
2022-09-06T01:55:22.254Z,93.80
2022-09-06T01:55:53.852Z,91.40
2022-09-06T01:56:25.426Z,92.70
2022-09-06T01:56:56.928Z,92.60
2022-09-06T01:57:28.448Z,92.00
2022-09-06T01:58:00.031Z,92.00
2022-09-06T01:58:31.533Z,91.50
2022-09-06T01:59:03.038Z,91.70
2022-09-06T01:59:34.575Z,92.10
2022-09-06T02:00:06.084Z,90.20
2022-09-06T02:00:37.592Z,90.60
2022-09-06T02:01:09.163Z,91.00
2022-09-06T02:01:40.728Z,90.90
2022-09-06T02:02:12.367Z,90.80
2022-09-06T02:02:44.042Z,91.40
2022-09-06T02:03:15.583Z,90.20
2022-09-06T02:03:47.088Z,92.10
2022-09-06T02:04:18.618Z,90.00
2022-09-06T02:04:50.169Z,90.70
2022-09-06T02:05:21.763Z,90.90
2022-09-06T02:05:53.265Z,91.20
2022-09-06T02:06:24.868Z,91.80
2022-09-06T02:06:56.407Z,92.00
2022-09-06T02:07:28.001Z,93.40
2022-09-06T02:07:59.525Z,90.70
2022-09-06T02:08:31.030Z,94.20
2022-09-06T02:09:02.546Z,91.00
2022-09-06T02:09:34.051Z,90.50
2022-09-06T02:10:05.574Z,90.10
2022-09-06T02:10:37.081Z,90.40
2022-09-06T02:11:08.610Z,90.60
2022-09-06T02:11:40.131Z,90.60
2022-09-06T02:12:11.632Z,90.80
2022-09-06T02:12:43.125Z,90.80
2022-09-06T02:13:14.639Z,90.20
2022-09-06T02:13:46.168Z,90.30
2022-09-06T02:14:17.678Z,92.20
2022-09-06T02:14:49.185Z,92.40
2022-09-06T02:15:20.693Z,93.40
2022-09-06T02:15:52.201Z,93.40
2022-09-06T02:16:23.764Z,92.90
2022-09-06T02:16:55.362Z,97.00
2022-09-06T02:17:26.895Z,91.40
2022-09-06T02:17:58.406Z,95.60
2022-09-06T02:18:29.905Z,90.20
2022-09-06T02:19:01.405Z,91.60
2022-09-06T02:19:32.903Z,91.80
2022-09-06T02:20:04.425Z,91.80
2022-09-06T02:20:35.948Z,93.40
2022-09-06T02:21:07.461Z,90.60
2022-09-06T02:21:39.014Z,91.10
2022-09-06T02:22:10.516Z,90.40
2022-09-06T02:22:42.017Z,97.00
2022-09-06T02:23:13.567Z,90.90
2022-09-06T02:23:45.076Z,93.70
2022-09-06T02:24:16.575Z,93.20
2022-09-06T02:24:48.083Z,91.60
2022-09-06T02:25:19.593Z,93.80
2022-09-06T02:25:51.097Z,95.30
2022-09-06T02:26:22.598Z,92.70
2022-09-06T02:26:54.126Z,96.10
2022-09-06T02:27:25.631Z,90.70
2022-09-06T02:27:57.128Z,91.60
2022-09-06T02:28:28.761Z,94.90
2022-09-06T02:29:00.405Z,94.80
2022-09-06T02:29:32.021Z,91.30
2022-09-06T02:30:03.525Z,93.90
2022-09-06T02:30:35.115Z,96.90
2022-09-06T02:31:06.760Z,96.00
2022-09-06T02:31:38.333Z,97.20
2022-09-06T02:32:09.885Z,95.30
2022-09-06T02:32:41.380Z,88.70
2022-09-06T02:33:12.900Z,88.50
2022-09-06T02:33:44.406Z,88.70
2022-09-06T02:34:15.960Z,88.50
2022-09-06T02:34:47.502Z,88.70
2022-09-06T02:35:19.000Z,88.80
2022-09-06T02:35:50.495Z,88.90
2022-09-06T02:36:22.084Z,89.00
2022-09-06T02:36:53.613Z,89.10
2022-09-06T02:37:25.118Z,89.70
2022-09-06T02:37:56.632Z,89.90
2022-09-06T02:38:28.283Z,90.10
2022-09-06T02:38:59.909Z,90.30
2022-09-06T02:39:31.443Z,90.50
2022-09-06T02:40:03.219Z,90.60
2022-09-06T02:40:34.778Z,90.50
2022-09-06T02:41:06.279Z,91.10
2022-09-06T02:41:37.903Z,91.40
2022-09-06T02:42:09.442Z,91.60
2022-09-06T02:42:40.948Z,93.00
2022-09-06T02:43:12.461Z,95.40
2022-09-06T02:43:43.968Z,92.30
2022-09-06T02:44:15.468Z,93.70
2022-09-06T02:44:46.998Z,92.00
2022-09-06T02:45:18.496Z,88.90
2022-09-06T02:45:50.061Z,89.30
2022-09-06T02:46:21.625Z,90.10
2022-09-06T02:46:56.961Z,90.70
2022-09-06T02:47:28.947Z,91.10
2022-09-06T02:48:00.473Z,94.50
2022-09-06T02:48:32.014Z,88.90
2022-09-06T02:49:03.536Z,91.60
2022-09-06T02:49:35.032Z,94.40
2022-09-06T02:50:06.544Z,96.70
2022-09-06T02:50:38.130Z,91.90
2022-09-06T02:51:09.661Z,91.90
2022-09-06T02:51:41.159Z,92.00
2022-09-06T02:52:12.666Z,94.70
2022-09-06T02:52:44.225Z,93.80
2022-09-06T02:53:15.740Z,94.60
2022-09-06T02:53:47.235Z,91.80
2022-09-06T02:54:18.736Z,93.20
2022-09-06T02:54:50.301Z,91.90
2022-09-06T02:55:21.862Z,93.40
2022-09-06T02:55:53.364Z,90.70
2022-09-06T02:56:24.972Z,91.40
2022-09-06T02:56:56.509Z,95.40
2022-09-06T02:57:28.009Z,92.80
2022-09-06T02:57:59.545Z,90.80
2022-09-06T02:58:31.077Z,92.60
2022-09-06T02:59:02.599Z,94.70
2022-09-06T02:59:34.100Z,93.40
2022-09-06T03:00:05.595Z,92.90
2022-09-06T03:00:37.098Z,95.20
2022-09-06T03:01:08.673Z,91.70
2022-09-06T03:01:40.290Z,90.20
2022-09-06T03:02:11.853Z,90.60
2022-09-06T03:02:43.429Z,91.00
2022-09-06T03:03:14.954Z,91.70
2022-09-06T03:03:46.489Z,92.90
2022-09-06T03:04:18.001Z,92.30
2022-09-06T03:04:49.504Z,94.00
2022-09-06T03:05:20.991Z,94.40
2022-09-06T03:05:52.498Z,95.80
2022-09-06T03:06:23.997Z,90.00
2022-09-06T03:06:55.500Z,93.50
2022-09-06T03:07:27.005Z,90.50
2022-09-06T03:07:58.500Z,92.80
2022-09-06T03:08:30.016Z,95.10
2022-09-06T03:09:01.533Z,92.40
2022-09-06T03:09:33.055Z,92.90
2022-09-06T03:10:04.557Z,92.30
2022-09-06T03:10:36.077Z,94.50
2022-09-06T03:11:07.579Z,91.10
2022-09-06T03:11:39.090Z,92.30
2022-09-06T03:12:10.593Z,92.00
2022-09-06T03:12:42.100Z,92.40
2022-09-06T03:13:13.601Z,90.80
2022-09-06T03:13:45.120Z,91.10
2022-09-06T03:14:16.628Z,91.00
2022-09-06T03:14:50.148Z,94.10
2022-09-06T03:15:24.573Z,93.90
2022-09-06T03:15:56.083Z,93.00
2022-09-06T03:16:27.682Z,94.20
2022-09-06T03:16:59.285Z,90.80
2022-09-06T03:17:30.837Z,91.00
2022-09-06T03:18:02.343Z,91.40
2022-09-06T03:18:33.873Z,91.90
2022-09-06T03:19:05.404Z,92.70
2022-09-06T03:19:36.910Z,94.40
2022-09-06T03:20:08.411Z,92.30
2022-09-06T03:20:39.941Z,93.30
2022-09-06T03:21:11.508Z,92.80
2022-09-06T03:21:43.080Z,95.00
2022-09-06T03:22:14.601Z,92.50
2022-09-06T03:22:46.095Z,92.80
2022-09-06T03:23:17.605Z,93.20
2022-09-06T03:23:49.134Z,91.80
2022-09-06T03:24:20.638Z,93.00
2022-09-06T03:24:52.162Z,93.60
2022-09-06T03:25:23.661Z,93.10
2022-09-06T03:25:55.159Z,91.60
2022-09-06T03:26:26.665Z,91.80
2022-09-06T03:26:58.164Z,94.90
2022-09-06T03:27:29.685Z,91.40
2022-09-06T03:28:01.211Z,95.20
2022-09-06T03:28:32.710Z,93.80
2022-09-06T03:29:04.212Z,91.60
2022-09-06T03:29:35.717Z,92.00
2022-09-06T03:30:07.250Z,93.40
2022-09-06T03:30:38.778Z,95.70
2022-09-06T03:31:10.545Z,91.90
2022-09-06T03:31:42.134Z,96.10
2022-09-06T03:32:13.632Z,93.50
2022-09-06T03:32:45.135Z,95.50
2022-09-06T03:33:16.679Z,94.50
2022-09-06T03:33:48.190Z,92.10
2022-09-06T03:34:19.720Z,92.90
2022-09-06T03:34:51.224Z,93.10
2022-09-06T03:35:22.750Z,94.20
2022-09-06T03:35:54.253Z,92.20
2022-09-06T03:36:25.774Z,92.50
2022-09-06T03:36:57.287Z,94.20
2022-09-06T03:37:28.826Z,95.10
2022-09-06T03:38:00.357Z,93.00
2022-09-06T03:38:31.867Z,95.20
2022-09-06T03:39:03.384Z,93.00
2022-09-06T03:39:34.917Z,93.60
2022-09-06T03:40:06.528Z,92.00
2022-09-06T03:40:38.078Z,92.60
2022-09-06T03:41:09.587Z,92.70
2022-09-06T03:41:41.089Z,93.50
2022-09-06T03:42:12.630Z,91.50
2022-09-06T03:42:44.143Z,93.40
2022-09-06T03:43:15.652Z,93.60
2022-09-06T03:43:47.178Z,94.40
2022-09-06T03:44:18.696Z,93.40
2022-09-06T03:44:50.204Z,93.70
2022-09-06T03:45:21.730Z,95.10
2022-09-06T03:45:53.323Z,94.10
2022-09-06T03:46:24.921Z,92.20
2022-09-06T03:46:56.450Z,95.10
2022-09-06T03:47:27.976Z,93.00
2022-09-06T03:47:59.482Z,94.80
2022-09-06T03:48:30.989Z,93.30
2022-09-06T03:49:02.524Z,92.80
2022-09-06T03:49:34.028Z,94.70
2022-09-06T03:50:05.545Z,94.90
2022-09-06T03:50:37.057Z,94.80
2022-09-06T03:51:08.595Z,93.40
2022-09-06T03:51:40.089Z,93.90
2022-09-06T03:52:11.625Z,95.60
2022-09-06T03:52:43.170Z,95.50
2022-09-06T03:53:14.694Z,94.80
2022-09-06T03:53:46.206Z,94.80
2022-09-06T03:54:17.704Z,95.10
2022-09-06T03:54:49.205Z,94.80
2022-09-06T03:55:20.709Z,96.30
2022-09-06T03:55:52.222Z,95.40
2022-09-06T03:56:23.729Z,95.80
2022-09-06T03:56:55.228Z,95.00
2022-09-06T03:57:26.734Z,93.50
2022-09-06T03:57:58.242Z,92.70
2022-09-06T03:58:29.753Z,92.90
2022-09-06T03:59:01.258Z,93.30
2022-09-06T03:59:32.757Z,95.70
2022-09-06T04:00:04.317Z,94.80
2022-09-06T04:00:35.828Z,95.30
2022-09-06T04:01:07.390Z,90.60
2022-09-06T04:01:39.034Z,89.70
2022-09-06T04:02:10.606Z,89.10
2022-09-06T04:02:42.214Z,89.10
2022-09-06T04:03:13.792Z,89.10
2022-09-06T04:03:45.293Z,89.00
2022-09-06T04:04:16.798Z,89.20
2022-09-06T04:04:48.301Z,89.20
2022-09-06T04:05:19.792Z,89.10
2022-09-06T04:05:51.302Z,89.00
2022-09-06T04:06:22.829Z,88.90
2022-09-06T04:06:54.328Z,88.80
2022-09-06T04:07:25.850Z,88.70
2022-09-06T04:07:57.367Z,88.70
2022-09-06T04:08:28.982Z,88.70
2022-09-06T04:09:00.609Z,88.60
2022-09-06T04:09:32.107Z,88.50
2022-09-06T04:10:03.621Z,88.50
2022-09-06T04:10:35.127Z,88.50
2022-09-06T04:11:06.636Z,88.40
2022-09-06T04:11:38.189Z,88.50
2022-09-06T04:12:09.710Z,88.50
2022-09-06T04:12:41.220Z,88.50
2022-09-06T04:13:12.748Z,88.50
2022-09-06T04:13:44.287Z,88.40
2022-09-06T04:14:15.788Z,88.40
2022-09-06T04:14:47.285Z,88.30
2022-09-06T04:15:18.789Z,88.20
2022-09-06T04:15:50.300Z,88.30
2022-09-06T04:16:21.914Z,88.30
2022-09-06T04:16:53.531Z,88.30
2022-09-06T04:17:25.097Z,88.30
2022-09-06T04:17:56.601Z,88.30
2022-09-06T04:18:28.261Z,88.30
2022-09-06T04:18:59.869Z,88.30
2022-09-06T04:19:31.372Z,88.30
2022-09-06T04:20:02.913Z,88.30
2022-09-06T04:20:34.407Z,88.30
2022-09-06T04:21:05.932Z,88.30
2022-09-06T04:21:37.438Z,88.30
2022-09-06T04:22:08.953Z,88.30
2022-09-06T04:22:40.456Z,88.30
2022-09-06T04:23:11.969Z,88.20
2022-09-06T04:23:43.473Z,88.00
2022-09-06T04:24:14.985Z,88.10
2022-09-06T04:24:46.514Z,88.00
2022-09-06T04:25:18.017Z,88.00
2022-09-06T04:25:49.541Z,88.20
2022-09-06T04:26:21.040Z,88.00
2022-09-06T04:26:52.541Z,88.00
2022-09-06T04:27:24.050Z,88.00
2022-09-06T04:27:55.557Z,88.00
2022-09-06T04:28:27.177Z,88.00
2022-09-06T04:28:58.760Z,88.20
2022-09-06T04:29:30.281Z,88.10
2022-09-06T04:30:01.791Z,88.20
2022-09-06T04:30:33.301Z,88.10
2022-09-06T04:31:05.393Z,88.10
2022-09-06T04:31:37.098Z,88.10
2022-09-06T04:32:08.705Z,88.10
2022-09-06T04:32:40.253Z,88.10
2022-09-06T04:33:11.775Z,88.10
2022-09-06T04:33:43.328Z,88.10
2022-09-06T04:34:14.829Z,88.20
2022-09-06T04:34:46.334Z,88.20
2022-09-06T04:35:17.850Z,88.30
2022-09-06T04:35:49.392Z,88.30
2022-09-06T04:36:20.934Z,88.30
2022-09-06T04:36:52.428Z,88.40
2022-09-06T04:37:23.929Z,88.30
2022-09-06T04:37:55.429Z,88.40
2022-09-06T04:38:26.935Z,88.20
2022-09-06T04:38:58.475Z,88.50
2022-09-06T04:39:30.023Z,88.40
2022-09-06T04:40:01.679Z,88.40
2022-09-06T04:40:33.259Z,88.50
2022-09-06T04:41:04.775Z,88.40
2022-09-06T04:41:36.281Z,88.20
2022-09-06T04:42:07.786Z,88.20
2022-09-06T04:42:39.295Z,88.20
2022-09-06T04:43:10.826Z,88.30
2022-09-06T04:43:42.341Z,88.30
2022-09-06T04:44:13.840Z,88.30
2022-09-06T04:44:45.338Z,88.20
2022-09-06T04:45:16.840Z,88.30
2022-09-06T04:45:48.354Z,88.40
2022-09-06T04:46:19.959Z,88.40
2022-09-06T04:46:51.508Z,88.30
2022-09-06T04:47:23.017Z,88.20
2022-09-06T04:47:54.529Z,88.20
2022-09-06T04:48:26.079Z,88.20
2022-09-06T04:48:57.661Z,88.30
2022-09-06T04:49:29.164Z,88.30
2022-09-06T04:50:00.656Z,88.30
2022-09-06T04:50:32.164Z,88.30
2022-09-06T04:51:03.660Z,88.30
2022-09-06T04:51:35.166Z,88.40
2022-09-06T04:52:06.667Z,88.30
2022-09-06T04:52:38.173Z,88.30
2022-09-06T04:53:09.690Z,88.20
2022-09-06T04:53:41.189Z,88.30
2022-09-06T04:54:12.719Z,88.30
2022-09-06T04:54:44.208Z,88.30
2022-09-06T04:55:15.736Z,89.00
2022-09-06T04:55:47.232Z,88.30
2022-09-06T04:56:18.748Z,88.40
2022-09-06T04:56:50.254Z,88.40
2022-09-06T04:57:21.760Z,88.30
2022-09-06T04:57:53.257Z,88.30
2022-09-06T04:58:24.761Z,88.30
2022-09-06T04:58:56.259Z,88.30
2022-09-06T04:59:27.770Z,88.40
2022-09-06T04:59:59.278Z,88.30
2022-09-06T05:00:30.786Z,88.40
2022-09-06T05:01:02.372Z,88.40
2022-09-06T05:01:33.999Z,88.40
2022-09-06T05:02:05.609Z,88.40
2022-09-06T05:02:37.192Z,88.50
2022-09-06T05:03:08.758Z,88.50
2022-09-06T05:03:40.261Z,88.40
2022-09-06T05:04:11.787Z,88.50
2022-09-06T05:04:43.308Z,88.50
2022-09-06T05:05:14.809Z,88.70
2022-09-06T05:05:46.322Z,88.50
2022-09-06T05:06:17.820Z,88.60
2022-09-06T05:06:49.336Z,88.50
2022-09-06T05:07:20.845Z,88.50
2022-09-06T05:07:52.343Z,88.50
2022-09-06T05:08:23.870Z,88.50
2022-09-06T05:08:55.480Z,88.50
2022-09-06T05:09:26.986Z,88.40
2022-09-06T05:09:58.483Z,88.40
2022-09-06T05:10:29.995Z,88.40
2022-09-06T05:11:01.506Z,88.70
2022-09-06T05:11:33.019Z,88.70
2022-09-06T05:12:04.528Z,88.60
2022-09-06T05:12:37.366Z,88.70
2022-09-06T05:13:10.338Z,88.70
2022-09-06T05:13:44.381Z,88.60
2022-09-06T05:14:15.900Z,88.60
2022-09-06T05:14:47.404Z,88.60
2022-09-06T05:15:18.908Z,88.60
2022-09-06T05:15:50.409Z,88.70
2022-09-06T05:16:22.000Z,88.70
2022-09-06T05:16:53.553Z,88.70
2022-09-06T05:17:25.080Z,88.70
2022-09-06T05:17:56.587Z,88.80
2022-09-06T05:18:28.205Z,88.80
2022-09-06T05:18:59.891Z,88.70
2022-09-06T05:19:31.410Z,88.80
2022-09-06T05:20:02.953Z,88.80
2022-09-06T05:20:34.457Z,88.70
2022-09-06T05:21:05.959Z,88.80
2022-09-06T05:21:37.468Z,88.80
2022-09-06T05:22:08.982Z,89.00
2022-09-06T05:22:40.490Z,88.80
2022-09-06T05:23:12.005Z,88.90
2022-09-06T05:23:43.509Z,88.80
2022-09-06T05:24:15.016Z,88.90
2022-09-06T05:24:46.526Z,89.00
2022-09-06T05:25:18.024Z,89.00
2022-09-06T05:25:49.520Z,89.00
2022-09-06T05:26:21.024Z,89.00
2022-09-06T05:26:52.519Z,89.00
2022-09-06T05:27:24.023Z,88.90
2022-09-06T05:27:55.534Z,89.00
2022-09-06T05:28:27.052Z,89.00
2022-09-06T05:28:58.558Z,89.00
2022-09-06T05:29:30.692Z,88.90
2022-09-06T05:30:02.312Z,89.00
2022-09-06T05:30:33.834Z,89.10
2022-09-06T05:31:05.336Z,89.10
2022-09-06T05:31:36.884Z,89.00
2022-09-06T05:32:08.518Z,89.10
2022-09-06T05:32:40.057Z,89.10
2022-09-06T05:33:11.562Z,88.90
2022-09-06T05:33:43.109Z,88.90
2022-09-06T05:34:14.638Z,89.00
2022-09-06T05:34:46.140Z,89.10
2022-09-06T05:35:17.640Z,89.10
2022-09-06T05:35:49.143Z,89.00
2022-09-06T05:36:20.660Z,89.00
2022-09-06T05:36:52.157Z,89.00
2022-09-06T05:37:23.669Z,89.00
2022-09-06T05:37:55.174Z,89.00
2022-09-06T05:38:29.602Z,88.90
2022-09-06T05:39:01.372Z,88.20
2022-09-06T05:39:32.951Z,88.20
2022-09-06T05:40:04.522Z,88.20
2022-09-06T05:40:36.040Z,88.20
2022-09-06T05:41:07.566Z,88.30
2022-09-06T05:41:39.078Z,88.20
2022-09-06T05:42:10.583Z,88.20
2022-09-06T05:42:42.085Z,88.30
2022-09-06T05:43:13.583Z,88.20
2022-09-06T05:43:45.080Z,88.20
2022-09-06T05:44:16.590Z,88.40
2022-09-06T05:44:48.096Z,88.20
2022-09-06T05:45:19.607Z,88.20
2022-09-06T05:45:51.163Z,88.30
2022-09-06T05:46:22.714Z,88.20
2022-09-06T05:46:54.228Z,88.30
2022-09-06T05:47:25.728Z,88.40
2022-09-06T05:47:57.220Z,88.30
2022-09-06T05:48:31.229Z,88.30
2022-09-06T05:49:04.918Z,88.40
2022-09-06T05:49:36.437Z,88.50
2022-09-06T05:50:07.940Z,88.40
2022-09-06T05:50:39.457Z,88.40
2022-09-06T05:51:10.970Z,88.40
2022-09-06T05:51:42.481Z,88.40
2022-09-06T05:52:14.013Z,88.40
2022-09-06T05:52:45.520Z,88.30
2022-09-06T05:53:17.036Z,88.40
2022-09-06T05:53:48.541Z,88.40
2022-09-06T05:54:20.054Z,88.40
2022-09-06T05:54:51.564Z,88.40
2022-09-06T05:55:23.069Z,88.40
2022-09-06T05:55:54.579Z,88.40
2022-09-06T05:56:26.084Z,88.40
2022-09-06T05:56:57.576Z,88.40
2022-09-06T05:57:29.081Z,88.40
2022-09-06T05:58:00.614Z,88.40
2022-09-06T05:58:32.146Z,89.20
2022-09-06T05:59:03.651Z,88.40
2022-09-06T05:59:35.157Z,88.40
2022-09-06T06:00:06.656Z,89.30
2022-09-06T06:00:38.173Z,88.50
2022-09-06T06:01:09.760Z,88.50
2022-09-06T06:01:41.349Z,88.50
2022-09-06T06:02:13.072Z,89.20
2022-09-06T06:02:44.686Z,88.50
2022-09-06T06:03:16.229Z,88.50
2022-09-06T06:03:47.750Z,88.50
2022-09-06T06:04:19.257Z,88.50
2022-09-06T06:04:50.791Z,88.50
2022-09-06T06:05:22.290Z,88.50
2022-09-06T06:05:53.804Z,88.50
2022-09-06T06:06:25.316Z,88.50
2022-09-06T06:06:56.816Z,88.40
2022-09-06T06:07:28.316Z,88.40
2022-09-06T06:07:59.818Z,88.40
2022-09-06T06:08:31.369Z,88.40
2022-09-06T06:09:02.882Z,88.50
2022-09-06T06:09:34.385Z,88.40
2022-09-06T06:10:05.889Z,88.40
2022-09-06T06:10:38.680Z,88.40
2022-09-06T06:11:10.310Z,88.50
2022-09-06T06:11:41.892Z,88.40
2022-09-06T06:12:13.402Z,88.40
2022-09-06T06:12:44.900Z,88.40
2022-09-06T06:13:16.401Z,88.40
2022-09-06T06:13:47.949Z,88.50
2022-09-06T06:14:19.462Z,88.50
2022-09-06T06:14:50.961Z,88.50
2022-09-06T06:15:22.469Z,88.50
2022-09-06T06:15:53.998Z,88.70
2022-09-06T06:16:25.576Z,88.50
2022-09-06T06:16:57.200Z,88.60
2022-09-06T06:17:28.737Z,88.60
2022-09-06T06:18:00.237Z,88.60
2022-09-06T06:18:31.745Z,88.70
2022-09-06T06:19:03.278Z,88.50
2022-09-06T06:19:34.788Z,88.60
2022-09-06T06:20:06.329Z,88.70
2022-09-06T06:20:37.838Z,88.70
2022-09-06T06:21:09.348Z,88.60
2022-09-06T06:21:40.858Z,88.60
2022-09-06T06:22:12.353Z,88.60
2022-09-06T06:22:43.856Z,88.70
2022-09-06T06:23:15.380Z,88.70
2022-09-06T06:23:46.901Z,88.70
2022-09-06T06:24:18.398Z,88.70
2022-09-06T06:24:49.900Z,88.70
2022-09-06T06:25:21.418Z,88.70
2022-09-06T06:25:52.928Z,88.80
2022-09-06T06:26:24.438Z,88.70
2022-09-06T06:26:55.942Z,88.70
2022-09-06T06:27:27.465Z,88.70
2022-09-06T06:27:58.968Z,88.70
2022-09-06T06:28:30.468Z,88.80
2022-09-06T06:29:02.109Z,88.80
2022-09-06T06:29:33.676Z,88.70
2022-09-06T06:30:05.178Z,88.80
2022-09-06T06:30:36.702Z,88.80
2022-09-06T06:31:08.237Z,88.70
2022-09-06T06:31:39.794Z,88.70
2022-09-06T06:32:11.396Z,88.70
2022-09-06T06:32:42.928Z,88.70
2022-09-06T06:33:14.423Z,88.80
2022-09-06T06:33:45.920Z,88.70
2022-09-06T06:34:17.426Z,88.70
2022-09-06T06:34:48.929Z,88.70
2022-09-06T06:35:20.431Z,88.70
2022-09-06T06:35:51.942Z,88.70
2022-09-06T06:36:23.466Z,88.70
2022-09-06T06:36:54.973Z,88.70
2022-09-06T06:37:26.529Z,88.70
2022-09-06T06:37:58.041Z,88.70
2022-09-06T06:38:29.720Z,88.80
2022-09-06T06:39:01.318Z,88.70
2022-09-06T06:39:32.904Z,88.70
2022-09-06T06:40:04.576Z,88.70
2022-09-06T06:40:36.116Z,88.80
2022-09-06T06:41:07.612Z,88.80
2022-09-06T06:41:39.117Z,88.80
2022-09-06T06:42:10.628Z,88.80
2022-09-06T06:42:42.135Z,88.80
2022-09-06T06:43:13.656Z,88.80
2022-09-06T06:43:45.171Z,88.90
2022-09-06T06:44:16.702Z,88.80
2022-09-06T06:44:48.219Z,88.80
2022-09-06T06:45:19.719Z,88.80
2022-09-06T06:45:51.262Z,88.80
2022-09-06T06:46:22.793Z,89.00
2022-09-06T06:46:54.316Z,89.00
2022-09-06T06:47:25.825Z,88.90
2022-09-06T06:47:57.325Z,88.90
2022-09-06T06:48:28.960Z,89.00